Time;durP1;ratioP1;P1;durP2;ratioP2;P2;SDS_P1;SDS_P2;PMS_P1;PMS_P2;Temp;Humidity;BMP_temperature;BMP_pressure;BME280_temperature;BME280_humidity;BME280_pressure;Samples;Min_cycle;Max_cycle;Signal;HPM_P1;HPM_P2
2021/01/05 00:00:36;;;;;;;6.07;4.77;;;3.80;99.90;;;;;;5049084;28;20478;-68
2021/01/05 00:03:03;;;;;;;6.97;4.97;;;3.90;99.90;;;;;;5051553;28;20474;-68
2021/01/05 00:05:30;;;;;;;5.10;4.70;;;3.90;99.90;;;;;;5043778;28;20464;-69
2021/01/05 00:07:56;;;;;;;4.27;3.93;;;3.90;99.90;;;;;;5050515;28;20448;-68
2021/01/05 00:10:22;;;;;;;5.03;4.63;;;3.90;99.90;;;;;;5045452;28;20491;-67
2021/01/05 00:12:50;;;;;;;5.00;4.20;;;3.90;99.90;;;;;;5031703;28;20457;-68
2021/01/05 00:15:17;;;;;;;4.87;4.47;;;3.90;99.90;;;;;;5050500;28;20448;-69
2021/01/05 00:17:44;;;;;;;5.30;4.90;;;3.90;99.90;;;;;;5051110;28;20540;-68
2021/01/05 00:20:14;;;;;;;4.43;4.03;;;3.90;99.90;;;;;;5049282;28;20476;-69
2021/01/05 00:22:40;;;;;;;4.60;4.17;;;4.90;99.90;;;;;;5051010;28;20452;-68
2021/01/05 00:25:08;;;;;;;4.10;3.77;;;4.00;99.90;;;;;;5039713;28;20846;-68
2021/01/05 00:27:35;;;;;;;4.93;4.57;;;4.00;99.90;;;;;;5051088;28;20444;-68
2021/01/05 00:30:05;;;;;;;4.43;4.13;;;4.00;99.90;;;;;;5041941;28;20474;-68
2021/01/05 00:32:31;;;;;;;4.60;4.20;;;4.00;99.90;;;;;;5050442;28;20455;-68
2021/01/05 00:34:57;;;;;;;4.50;4.10;;;3.90;99.90;;;;;;5038945;28;20452;-68
2021/01/05 00:37:24;;;;;;;4.73;4.33;;;4.10;99.90;;;;;;5031104;28;20487;-68
2021/01/05 00:39:50;;;;;;;4.73;4.37;;;4.00;99.90;;;;;;5040818;28;20460;-68
2021/01/05 00:42:16;;;;;;;5.10;4.70;;;4.00;99.90;;;;;;5030957;28;20522;-66
2021/01/05 00:44:43;;;;;;;5.37;4.40;;;4.00;99.90;;;;;;5032125;28;20476;-66
2021/01/05 00:47:10;;;;;;;4.73;4.20;;;4.00;99.90;;;;;;5055082;28;20476;-66
2021/01/05 00:49:36;;;;;;;4.70;4.30;;;3.90;99.90;;;;;;5037007;28;20948;-66
2021/01/05 00:52:03;;;;;;;4.93;4.60;;;4.00;99.90;;;;;;5045245;28;20468;-66
2021/01/05 00:54:29;;;;;;;4.67;4.10;;;4.00;99.90;;;;;;5047777;28;20459;-65
2021/01/05 00:57:00;;;;;;;4.60;4.20;;;3.90;99.90;;;;;;5054413;28;20479;-67
2021/01/05 00:59:27;;;;;;;4.73;4.37;;;3.90;99.90;;;;;;5037940;28;20457;-65
2021/01/05 01:01:54;;;;;;;4.57;4.17;;;3.90;99.90;;;;;;5042178;28;20476;-65
2021/01/05 01:04:21;;;;;;;4.57;4.17;;;3.90;99.90;;;;;;5053464;28;20452;-66
2021/01/05 01:06:48;;;;;;;4.90;4.50;;;4.00;99.90;;;;;;5054156;28;20860;-66
2021/01/05 01:09:14;;;;;;;4.17;3.87;;;4.30;99.90;;;;;;5052459;28;20448;-66
2021/01/05 01:11:56;;;;;;;4.50;4.20;;;5.10;99.90;;;;;;5053447;28;20470;-67
2021/01/05 01:14:23;;;;;;;6.80;4.77;;;4.20;99.90;;;;;;5048715;28;20478;-68
2021/01/05 01:16:49;;;;;;;4.43;4.03;;;4.10;99.90;;;;;;5049638;28;20483;-69
2021/01/05 01:19:15;;;;;;;4.87;4.57;;;4.00;99.90;;;;;;5037618;28;20458;-65
2021/01/05 01:21:46;;;;;;;4.77;4.37;;;3.90;99.90;;;;;;5053610;28;20487;-65
2021/01/05 01:24:12;;;;;;;4.80;4.40;;;4.00;99.90;;;;;;5053724;28;20512;-67
2021/01/05 01:26:38;;;;;;;4.33;4.03;;;4.00;99.90;;;;;;5043604;28;20453;-66
2021/01/05 01:29:05;;;;;;;4.87;4.57;;;4.00;99.90;;;;;;5034094;28;20453;-69
2021/01/05 01:31:31;;;;;;;4.90;4.50;;;4.20;99.90;;;;;;5034554;28;20482;-68
2021/01/05 01:33:57;;;;;;;4.20;3.90;;;4.10;99.90;;;;;;5034478;28;20464;-67
2021/01/05 01:36:24;;;;;;;5.00;4.50;;;3.90;99.90;;;;;;5052670;28;20463;-69
2021/01/05 01:38:51;;;;;;;4.40;4.00;;;3.80;99.90;;;;;;5053667;28;20451;-69
2021/01/05 01:41:17;;;;;;;4.40;3.40;;;4.10;99.90;;;;;;5039187;28;20472;-69
2021/01/05 01:43:43;;;;;;;4.87;4.47;;;4.20;99.90;;;;;;5036479;28;20521;-69
2021/01/05 01:46:11;;;;;;;4.73;4.33;;;3.90;99.90;;;;;;5053764;28;20448;-66
2021/01/05 01:48:38;;;;;;;4.73;4.43;;;3.90;99.90;;;;;;5052618;28;20965;-69
2021/01/05 01:51:06;;;;;;;4.60;4.30;;;3.80;99.90;;;;;;5052518;28;20482;-69
2021/01/05 01:54:06;;;;;;;5.10;4.60;;;3.80;99.90;;;;;;5052342;28;20452;-69
2021/01/05 01:56:57;;;;;;;4.10;3.80;;;3.90;99.90;;;;;;5043356;28;20467;-66
2021/01/05 01:59:41;;;;;;;4.73;4.43;;;4.10;99.90;;;;;;5033264;28;20865;-67
2021/01/05 02:02:13;;;;;;;4.57;4.27;;;3.90;99.90;;;;;;5038704;28;20471;-66
2021/01/05 02:05:02;;;;;;;4.93;4.60;;;3.80;99.90;;;;;;5051596;28;20447;-66
2021/01/05 02:07:51;;;;;;;5.43;4.97;;;3.70;99.90;;;;;;5048988;28;20448;-66
2021/01/05 02:10:49;;;;;;;5.07;4.67;;;4.00;99.90;;;;;;5042728;28;20534;-66
2021/01/05 02:13:35;;;;;;;4.97;4.47;;;4.00;99.90;;;;;;5033083;28;20452;-66
2021/01/05 02:16:27;;;;;;;4.90;4.47;;;3.90;99.90;;;;;;5033882;28;20955;-66
2021/01/05 02:18:54;;;;;;;5.80;5.30;;;3.90;99.90;;;;;;5051154;28;20601;-67
2021/01/05 02:21:31;;;;;;;4.43;4.13;;;3.70;99.90;;;;;;5036599;28;20987;-65
2021/01/05 02:24:21;;;;;;;4.67;4.27;;;3.70;99.90;;;;;;5054335;28;20459;-66
2021/01/05 02:26:54;;;;;;;5.40;5.00;;;3.70;99.90;;;;;;5032817;28;20447;-67
2021/01/05 02:29:24;;;;;;;6.17;5.67;;;3.90;99.90;;;;;;5032632;28;20491;-66
2021/01/05 02:32:00;;;;;;;6.77;6.17;;;3.80;99.90;;;;;;5044901;28;21003;-66
2021/01/05 02:35:06;;;;;;;6.17;5.57;;;3.80;99.90;;;;;;5052211;28;20448;-68
2021/01/05 02:37:39;;;;;;;4.47;4.17;;;3.70;99.90;;;;;;5015550;28;20480;-68
2021/01/05 02:40:23;;;;;;;4.97;4.67;;;3.80;99.90;;;;;;5033315;28;20495;-68
2021/01/05 02:43:21;;;;;;;5.87;5.40;;;3.80;99.90;;;;;;5044961;28;20463;-69
2021/01/05 02:46:08;;;;;;;5.70;5.20;;;3.80;99.90;;;;;;5039253;28;20460;-67
2021/01/05 02:49:02;;;;;;;5.83;5.43;;;3.90;99.90;;;;;;5051407;28;20440;-69
2021/01/05 02:51:50;;;;;;;5.00;4.60;;;4.20;99.90;;;;;;5033558;28;20487;-68
2021/01/05 02:55:07;;;;;;;5.37;4.97;;;3.90;99.90;;;;;;5033094;28;20449;-68
2021/01/05 02:57:51;;;;;;;5.77;5.27;;;3.80;99.90;;;;;;4989963;28;21411;-68
2021/01/05 03:00:46;;;;;;;5.30;4.90;;;3.90;99.90;;;;;;4990559;28;20501;-68
2021/01/05 03:03:36;;;;;;;5.70;5.20;;;3.80;99.90;;;;;;5026627;28;20510;-67
2021/01/05 03:06:26;;;;;;;5.43;4.50;;;3.70;99.90;;;;;;5032911;28;20460;-68
2021/01/05 03:09:07;;;;;;;5.33;4.83;;;4.20;99.90;;;;;;5035210;28;20822;-68
2021/01/05 03:11:44;;;;;;;7.90;6.13;;;3.70;99.90;;;;;;5043123;28;20868;-68
2021/01/05 03:14:16;;;;;;;5.70;5.20;;;3.70;99.90;;;;;;5031944;28;20461;-69
2021/01/05 03:16:51;;;;;;;5.90;5.50;;;3.70;99.90;;;;;;5040323;28;20459;-68
2021/01/05 03:19:26;;;;;;;6.43;5.83;;;3.70;99.90;;;;;;5046564;28;20452;-69
2021/01/05 03:21:57;;;;;;;6.20;5.70;;;3.70;99.90;;;;;;5031530;28;20480;-69
2021/01/05 03:24:25;;;;;;;6.27;5.70;;;3.80;99.90;;;;;;5032391;28;20444;-69
2021/01/05 03:26:53;;;;;;;6.67;6.10;;;3.80;99.90;;;;;;5045887;28;20808;-68
2021/01/05 03:29:20;;;;;;;6.53;5.80;;;3.80;99.90;;;;;;5047436;28;20457;-69
2021/01/05 03:31:50;;;;;;;6.80;6.30;;;3.70;99.90;;;;;;5040567;28;20495;-68
2021/01/05 03:34:17;;;;;;;6.53;6.03;;;3.80;99.90;;;;;;5050249;28;20826;-69
2021/01/05 03:36:43;;;;;;;6.03;5.53;;;3.70;99.90;;;;;;5032970;28;20456;-68
2021/01/05 03:39:10;;;;;;;7.60;5.97;;;3.70;99.90;;;;;;5051026;28;20443;-68
2021/01/05 03:41:37;;;;;;;6.77;6.13;;;3.70;99.90;;;;;;5031655;28;20465;-69
2021/01/05 03:44:03;;;;;;;7.13;6.43;;;3.80;99.90;;;;;;5031298;28;20449;-69
2021/01/05 03:46:30;;;;;;;6.73;6.23;;;3.70;99.90;;;;;;5043487;28;20455;-68
2021/01/05 03:48:58;;;;;;;7.57;6.87;;;3.70;99.90;;;;;;5031564;28;20451;-67
2021/01/05 03:51:24;;;;;;;7.73;6.93;;;3.80;99.90;;;;;;5045618;28;21009;-67
2021/01/05 03:53:51;;;;;;;7.00;6.40;;;3.90;99.90;;;;;;5043852;28;20590;-69
2021/01/05 03:56:17;;;;;;;8.07;7.37;;;3.80;99.90;;;;;;5031447;28;20448;-69
2021/01/05 03:58:43;;;;;;;7.00;6.40;;;3.70;99.90;;;;;;5042602;28;20537;-67
2021/01/05 04:01:10;;;;;;;8.33;7.30;;;3.70;99.90;;;;;;5050663;28;20479;-67
2021/01/05 04:03:36;;;;;;;7.77;7.07;;;3.80;99.90;;;;;;5041128;28;20854;-67
2021/01/05 04:06:03;;;;;;;8.50;7.90;;;3.80;99.90;;;;;;5047486;28;20458;-67
2021/01/05 04:08:30;;;;;;;9.70;8.80;;;3.50;99.90;;;;;;5050837;28;20444;-67
2021/01/05 04:10:56;;;;;;;9.20;8.40;;;3.40;99.90;;;;;;5050376;28;20471;-66
2021/01/05 04:13:22;;;;;;;8.97;8.23;;;3.40;99.90;;;;;;5051249;28;20452;-66
2021/01/05 04:15:49;;;;;;;9.33;8.60;;;3.40;99.90;;;;;;5037357;28;20456;-66
2021/01/05 04:18:15;;;;;;;8.90;8.20;;;3.40;99.90;;;;;;5031155;28;20510;-66
2021/01/05 04:20:41;;;;;;;10.17;9.27;;;3.40;99.90;;;;;;5038190;28;20467;-66
2021/01/05 04:23:09;;;;;;;9.67;8.83;;;3.40;99.90;;;;;;5054369;28;20939;-66
2021/01/05 04:25:35;;;;;;;9.27;8.50;;;3.40;99.90;;;;;;5054711;28;20988;-66
2021/01/05 04:28:02;;;;;;;9.20;8.37;;;3.40;99.90;;;;;;5054718;28;20448;-67
2021/01/05 04:30:30;;;;;;;8.33;7.63;;;3.40;99.90;;;;;;5052728;28;20475;-68
2021/01/05 04:32:59;;;;;;;9.77;8.90;;;3.40;99.90;;;;;;5039214;28;20461;-67
2021/01/05 04:35:26;;;;;;;8.20;7.50;;;3.40;99.90;;;;;;5053739;28;20454;-68
2021/01/05 04:37:53;;;;;;;8.80;8.00;;;3.40;99.90;;;;;;5054128;28;20483;-68
2021/01/05 04:40:34;;;;;;;8.70;8.00;;;3.40;99.90;;;;;;5053886;28;20467;-66
2021/01/05 04:43:18;;;;;;;9.60;8.80;;;3.40;99.90;;;;;;5046879;28;20488;-66
2021/01/05 04:46:06;;;;;;;9.57;8.77;;;3.40;99.90;;;;;;5034021;28;20526;-68
2021/01/05 04:48:39;;;;;;;9.40;8.60;;;3.40;99.90;;;;;;5042644;28;20446;-68
2021/01/05 04:51:15;;;;;;;8.90;8.00;;;3.50;99.90;;;;;;5047116;28;20468;-68
2021/01/05 04:53:49;;;;;;;9.07;8.27;;;3.50;99.90;;;;;;5034369;28;20957;-65
2021/01/05 04:56:18;;;;;;;10.27;9.30;;;3.50;99.90;;;;;;5034823;28;20445;-65
2021/01/05 04:58:49;;;;;;;9.50;8.70;;;3.40;99.90;;;;;;5034602;28;20480;-67
2021/01/05 05:01:21;;;;;;;10.20;9.20;;;3.50;99.90;;;;;;5035237;28;20833;-66
2021/01/05 05:04:02;;;;;;;9.73;8.93;;;3.50;99.90;;;;;;5039034;28;20455;-66
2021/01/05 05:06:42;;;;;;;8.90;8.00;;;3.50;99.90;;;;;;5046397;28;20452;-66
2021/01/05 05:09:39;;;;;;;8.60;7.90;;;3.40;99.90;;;;;;5053973;28;20505;-66
2021/01/05 05:12:17;;;;;;;10.20;9.27;;;3.50;99.90;;;;;;5053338;28;20530;-67
2021/01/05 05:14:56;;;;;;;9.03;8.20;;;3.40;99.90;;;;;;5050138;28;20455;-66
2021/01/05 05:18:07;;;;;;;9.03;8.23;;;3.50;99.90;;;;;;5034475;28;20487;-65
2021/01/05 05:21:13;;;;;;;10.40;9.50;;;3.50;99.90;;;;;;4991397;28;20470;-67
2021/01/05 05:23:59;;;;;;;9.50;8.80;;;3.50;99.90;;;;;;5053705;28;20955;-65
2021/01/05 05:26:32;;;;;;;10.20;9.40;;;3.50;99.90;;;;;;5050789;28;20479;-67
2021/01/05 05:29:04;;;;;;;10.80;9.90;;;3.50;99.90;;;;;;5049553;28;20441;-66
2021/01/05 05:31:33;;;;;;;11.67;10.67;;;3.60;99.90;;;;;;5037415;28;20475;-66
2021/01/05 05:34:03;;;;;;;10.07;9.20;;;3.60;99.90;;;;;;5046420;28;20758;-66
2021/01/05 05:36:54;;;;;;;10.83;9.83;;;3.70;99.90;;;;;;5033984;28;20451;-65
2021/01/05 05:39:39;;;;;;;10.10;9.30;;;3.70;99.90;;;;;;5034278;28;20445;-66
2021/01/05 05:42:14;;;;;;;12.13;11.13;;;3.60;99.90;;;;;;5033494;28;20480;-69
2021/01/05 05:44:47;;;;;;;11.53;10.63;;;3.70;99.90;;;;;;5047079;28;20459;-68
2021/01/05 05:47:20;;;;;;;10.30;9.50;;;3.60;99.90;;;;;;5033459;28;20460;-69
2021/01/05 05:49:55;;;;;;;10.90;9.93;;;3.70;99.90;;;;;;5049795;28;20825;-69
2021/01/05 05:52:31;;;;;;;11.10;10.20;;;3.80;99.90;;;;;;5053261;28;20874;-69
2021/01/05 05:54:59;;;;;;;9.93;9.13;;;3.70;99.90;;;;;;5040599;28;20459;-69
2021/01/05 05:57:40;;;;;;;10.77;9.97;;;3.60;99.90;;;;;;5052363;28;20841;-69
2021/01/05 06:00:23;;;;;;;11.40;10.50;;;3.60;99.90;;;;;;5053029;28;21052;-67
2021/01/05 06:02:50;;;;;;;10.70;9.80;;;3.60;99.90;;;;;;5033639;28;20460;-67
2021/01/05 06:05:28;;;;;;;11.90;10.90;;;3.60;99.90;;;;;;5033146;28;20883;-66
2021/01/05 06:07:55;;;;;;;11.30;10.30;;;3.60;99.90;;;;;;5051803;28;20459;-66
2021/01/05 06:10:22;;;;;;;12.97;11.67;;;3.60;99.90;;;;;;5052571;28;20467;-66
2021/01/05 06:12:48;;;;;;;11.70;10.80;;;3.60;99.90;;;;;;5044764;28;20444;-66
2021/01/05 06:15:16;;;;;;;12.50;11.30;;;3.60;99.90;;;;;;5037381;28;20959;-65
2021/01/05 06:17:42;;;;;;;13.10;12.00;;;3.60;99.90;;;;;;5052767;28;20528;-66
2021/01/05 06:20:10;;;;;;;11.50;10.40;;;3.60;99.90;;;;;;5052309;28;20478;-67
2021/01/05 06:22:36;;;;;;;12.17;11.07;;;3.60;99.90;;;;;;5053292;28;20470;-67
2021/01/05 06:25:04;;;;;;;11.30;10.30;;;3.60;99.90;;;;;;5051506;28;20534;-67
2021/01/05 06:27:30;;;;;;;13.23;11.93;;;3.60;99.90;;;;;;5052298;28;20981;-67
2021/01/05 06:29:56;;;;;;;12.43;11.13;;;3.60;99.90;;;;;;5050276;28;20514;-67
2021/01/05 06:32:24;;;;;;;12.70;11.60;;;3.60;99.90;;;;;;5042418;28;20563;-66
2021/01/05 06:34:50;;;;;;;12.10;11.10;;;3.60;99.90;;;;;;5032608;28;20445;-66
2021/01/05 06:37:17;;;;;;;12.03;11.03;;;3.70;99.90;;;;;;5050649;28;20483;-67
2021/01/05 06:39:43;;;;;;;11.87;10.87;;;3.60;99.90;;;;;;5043720;28;20475;-68
2021/01/05 06:42:10;;;;;;;12.20;11.10;;;3.60;99.90;;;;;;5032318;28;20469;-67
2021/01/05 06:44:37;;;;;;;12.60;11.30;;;3.60;99.90;;;;;;5038393;28;20947;-66
2021/01/05 06:47:03;;;;;;;15.23;11.20;;;3.60;99.90;;;;;;5032597;28;20448;-65
2021/01/05 06:49:30;;;;;;;11.80;10.80;;;3.60;99.90;;;;;;5032580;28;20449;-65
2021/01/05 06:51:57;;;;;;;11.90;10.90;;;3.60;99.90;;;;;;5032304;28;20473;-69
2021/01/05 06:54:23;;;;;;;12.37;11.27;;;3.60;99.90;;;;;;5035902;28;21004;-66
2021/01/05 06:56:52;;;;;;;11.77;10.77;;;3.60;99.90;;;;;;5049145;28;20453;-66
2021/01/05 06:59:20;;;;;;;13.40;12.00;;;3.60;99.90;;;;;;5052195;28;20435;-67
2021/01/05 07:01:50;;;;;;;11.83;10.83;;;3.60;99.90;;;;;;5051794;28;20463;-69
2021/01/05 07:04:17;;;;;;;12.00;11.00;;;3.60;99.90;;;;;;5042276;28;20444;-69
2021/01/05 07:06:44;;;;;;;12.23;11.13;;;3.70;99.90;;;;;;5039786;28;20467;-69
2021/01/05 07:09:10;;;;;;;13.00;11.63;;;3.70;99.90;;;;;;5045906;28;20440;-68
2021/01/05 07:11:37;;;;;;;11.10;10.20;;;3.70;99.90;;;;;;5041644;28;20468;-66
2021/01/05 07:14:03;;;;;;;12.10;11.10;;;3.70;99.90;;;;;;5045571;28;20449;-67
2021/01/05 07:16:29;;;;;;;11.73;10.57;;;3.70;99.90;;;;;;5031397;28;20460;-70
2021/01/05 07:18:56;;;;;;;11.03;10.23;;;3.70;99.90;;;;;;5034919;28;20483;-69
2021/01/05 07:21:23;;;;;;;9.13;5.47;;;3.80;99.90;;;;;;5044496;28;20479;-71
2021/01/05 07:23:50;;;;;;;10.70;3.90;;;11.50;99.90;;;;;;5050340;28;20459;-72
2021/01/05 07:26:16;;;;;;;6.33;3.30;;;13.60;99.90;;;;;;5042187;28;20998;-70
2021/01/05 07:28:43;;;;;;;4.63;3.63;;;15.30;99.90;;;;;;5044270;28;20461;-67
2021/01/05 07:31:09;;;;;;;4.67;3.37;;;16.30;99.90;;;;;;5049667;28;20503;-69
2021/01/05 07:33:36;;;;;;;5.70;3.90;;;17.20;99.90;;;;;;5050957;28;20958;-67
2021/01/05 07:36:05;;;;;;;8.40;4.50;;;18.00;99.90;;;;;;5034163;28;20476;-68
2021/01/05 07:38:32;;;;;;;7.67;3.77;;;18.60;99.90;;;;;;5031520;28;20487;-67
2021/01/05 07:40:59;;;;;;;4.70;3.37;;;19.10;99.90;;;;;;5046835;28;20529;-66
2021/01/05 07:43:25;;;;;;;2.70;2.50;;;19.20;99.90;;;;;;5050718;28;20982;-68
2021/01/05 07:45:51;;;;;;;3.80;2.83;;;19.50;99.90;;;;;;5050355;28;20451;-68
2021/01/05 07:48:18;;;;;;;2.60;2.40;;;19.60;99.90;;;;;;5049475;28;20885;-68
2021/01/05 07:50:44;;;;;;;3.73;2.60;;;19.80;99.90;;;;;;5048848;28;20472;-68
2021/01/05 07:53:10;;;;;;;2.90;2.40;;;20.00;99.90;;;;;;5050926;28;20447;-68
2021/01/05 07:55:37;;;;;;;2.53;2.27;;;20.10;99.90;;;;;;5042259;28;20467;-67
2021/01/05 07:58:04;;;;;;;3.43;2.00;;;20.20;99.90;;;;;;5054551;28;20483;-69
2021/01/05 08:00:30;;;;;;;2.80;2.00;;;20.20;99.90;;;;;;5054490;28;20476;-70
2021/01/05 08:02:58;;;;;;;2.40;2.20;;;20.30;99.90;;;;;;5037995;28;20468;-70
2021/01/05 08:05:26;;;;;;;1.83;1.73;;;20.30;99.90;;;;;;5052667;28;20459;-70
2021/01/05 08:07:52;;;;;;;2.00;1.80;;;20.40;99.90;;;;;;5042729;28;20468;-70
2021/01/05 08:10:21;;;;;;;2.90;2.33;;;20.40;99.90;;;;;;5049188;28;20489;-70
2021/01/05 08:12:48;;;;;;;3.23;2.20;;;20.40;99.90;;;;;;5043912;28;20486;-70
2021/01/05 08:15:17;;;;;;;2.20;1.97;;;20.50;99.90;;;;;;5050616;28;20877;-70
2021/01/05 08:17:43;;;;;;;2.57;2.20;;;20.40;99.90;;;;;;5048334;28;20490;-69
2021/01/05 08:20:11;;;;;;;2.20;2.00;;;20.20;99.90;;;;;;5055470;28;20463;-70
2021/01/05 08:22:37;;;;;;;6.63;6.13;;;20.40;99.90;;;;;;5053420;28;20891;-71
2021/01/05 08:25:04;;;;;;;8.63;7.93;;;9.40;99.90;;;;;;5050472;28;20456;-68
2021/01/05 08:27:30;;;;;;;9.03;8.33;;;6.10;99.90;;;;;;5043796;28;20464;-68
2021/01/05 08:29:57;;;;;;;9.77;9.07;;;5.20;99.90;;;;;;5051474;28;20464;-68
2021/01/05 08:32:24;;;;;;;10.03;9.30;;;4.70;99.90;;;;;;5051237;28;20454;-68
2021/01/05 08:34:50;;;;;;;8.80;8.10;;;4.50;99.90;;;;;;5054131;28;20497;-69
2021/01/05 08:37:17;;;;;;;9.40;8.60;;;4.30;99.90;;;;;;5063106;22;20436;-66
2021/01/05 08:39:43;;;;;;;10.67;9.70;;;4.30;99.90;;;;;;5095260;28;20541;-64
2021/01/05 08:42:10;;;;;;;9.63;8.73;;;4.30;99.90;;;;;;5083852;28;20447;-67
2021/01/05 08:44:36;;;;;;;9.73;8.93;;;4.20;99.90;;;;;;5094761;28;20480;-64
2021/01/05 08:47:04;;;;;;;10.20;9.30;;;4.20;99.90;;;;;;5085369;28;20597;-64
2021/01/05 08:49:32;;;;;;;9.70;8.90;;;4.20;99.90;;;;;;5072990;28;20450;-65
2021/01/05 08:51:59;;;;;;;9.53;8.57;;;4.10;99.90;;;;;;5073329;28;20834;-65
2021/01/05 08:54:26;;;;;;;9.03;8.23;;;4.10;99.90;;;;;;5071034;28;20475;-65
2021/01/05 08:56:54;;;;;;;8.80;8.10;;;4.10;99.90;;;;;;5074092;28;20447;-66
2021/01/05 08:59:20;;;;;;;9.93;9.00;;;4.10;99.90;;;;;;5074128;28;20479;-65
2021/01/05 09:01:46;;;;;;;9.10;8.30;;;4.10;99.90;;;;;;5069548;28;20473;-66
2021/01/05 09:04:13;;;;;;;9.30;8.50;;;4.10;99.90;;;;;;5073982;28;20481;-65
2021/01/05 09:06:40;;;;;;;9.83;8.63;;;4.10;99.90;;;;;;5071759;28;20470;-64
2021/01/05 09:09:07;;;;;;;8.80;8.10;;;4.10;99.90;;;;;;5074324;28;20471;-65
2021/01/05 09:11:33;;;;;;;9.70;8.80;;;4.20;99.90;;;;;;5073104;28;20470;-67
2021/01/05 09:13:59;;;;;;;9.47;8.67;;;4.20;99.90;;;;;;5071803;28;20470;-64
2021/01/05 09:16:28;;;;;;;8.80;7.90;;;4.20;99.90;;;;;;5073656;28;20496;-65
2021/01/05 09:18:55;;;;;;;8.73;7.97;;;4.20;99.90;;;;;;5073855;28;20491;-65
2021/01/05 09:21:23;;;;;;;10.17;9.27;;;4.20;99.90;;;;;;5073591;28;20961;-65
2021/01/05 09:23:51;;;;;;;7.30;6.60;;;4.30;99.90;;;;;;5073086;28;20877;-68
2021/01/05 09:26:22;;;;;;;8.03;7.07;;;5.30;99.90;;;;;;5071477;28;20471;-65
2021/01/05 09:28:48;;;;;;;7.30;6.13;;;5.30;99.90;;;;;;5072714;28;20479;-65
2021/01/05 09:31:15;;;;;;;8.70;8.07;;;8.10;99.90;;;;;;5059961;28;20954;-68
2021/01/05 09:33:42;;;;;;;8.80;8.00;;;5.00;99.90;;;;;;5072589;28;20467;-67
2021/01/05 09:36:09;;;;;;;8.10;7.50;;;4.50;99.90;;;;;;5063394;28;20511;-66
2021/01/05 09:38:35;;;;;;;9.50;8.60;;;4.50;99.90;;;;;;5069288;28;20856;-66
2021/01/05 09:41:02;;;;;;;9.40;8.53;;;4.40;99.90;;;;;;5073391;28;20466;-66
2021/01/05 09:43:30;;;;;;;9.80;8.87;;;4.40;99.90;;;;;;5056666;28;20463;-67
2021/01/05 09:45:57;;;;;;;9.40;8.60;;;4.40;99.90;;;;;;5062690;28;20833;-67
2021/01/05 09:48:23;;;;;;;9.57;8.70;;;4.30;99.90;;;;;;5064956;28;20520;-68
2021/01/05 09:50:49;;;;;;;8.50;7.80;;;4.40;99.90;;;;;;5073275;28;20965;-67
2021/01/05 09:53:16;;;;;;;8.80;8.03;;;4.30;99.90;;;;;;5073485;28;20473;-68
2021/01/05 09:55:42;;;;;;;10.20;9.17;;;4.30;99.90;;;;;;5073810;28;20451;-68
2021/01/05 09:58:09;;;;;;;9.27;8.47;;;4.40;99.90;;;;;;5069814;28;20494;-68
2021/01/05 10:00:36;;;;;;;8.30;7.50;;;4.40;99.90;;;;;;5068502;28;20468;-68
2021/01/05 10:03:02;;;;;;;8.70;8.00;;;4.40;99.90;;;;;;5073862;28;20467;-66
2021/01/05 10:05:28;;;;;;;9.23;8.43;;;4.40;99.90;;;;;;5074972;28;20451;-63
2021/01/05 10:07:56;;;;;;;9.37;8.40;;;4.40;99.90;;;;;;5063612;28;20483;-64
2021/01/05 10:10:24;;;;;;;8.80;8.10;;;4.40;99.90;;;;;;5068870;28;20459;-62
2021/01/05 10:12:51;;;;;;;9.37;8.50;;;4.40;99.90;;;;;;5070805;28;20470;-62
2021/01/05 10:15:20;;;;;;;9.17;8.47;;;4.40;99.90;;;;;;5072098;28;20474;-62
2021/01/05 10:17:46;;;;;;;9.07;8.27;;;4.50;99.90;;;;;;5071936;28;20860;-62
2021/01/05 10:20:15;;;;;;;8.50;7.80;;;4.50;99.90;;;;;;5072417;28;20484;-66
2021/01/05 10:22:41;;;;;;;8.70;8.00;;;4.50;99.90;;;;;;5068122;28;20527;-64
2021/01/05 10:25:10;;;;;;;8.60;7.90;;;4.40;99.90;;;;;;5066417;28;20463;-67
2021/01/05 10:27:37;;;;;;;8.23;7.43;;;4.40;99.90;;;;;;5070245;28;20467;-65
2021/01/05 10:30:06;;;;;;;7.63;7.13;;;4.40;99.90;;;;;;5073003;28;20876;-64
2021/01/05 10:32:33;;;;;;;7.23;6.73;;;4.50;99.90;;;;;;5063747;28;20533;-64
2021/01/05 10:34:59;;;;;;;8.47;7.77;;;4.50;99.90;;;;;;5072683;28;20450;-63
2021/01/05 10:37:25;;;;;;;8.10;7.50;;;4.50;99.90;;;;;;5054666;28;20847;-63
2021/01/05 10:39:51;;;;;;;8.00;7.30;;;4.50;99.90;;;;;;5075219;28;20447;-63
2021/01/05 10:42:18;;;;;;;9.07;8.30;;;4.50;99.90;;;;;;5057086;28;20462;-63
2021/01/05 10:44:44;;;;;;;8.30;7.60;;;4.60;99.90;;;;;;5054314;28;20455;-66
2021/01/05 10:47:14;;;;;;;9.03;8.17;;;4.60;99.90;;;;;;5070817;28;20457;-64
2021/01/05 10:49:41;;;;;;;8.43;7.63;;;4.60;99.90;;;;;;5073654;28;20447;-65
2021/01/05 10:52:15;;;;;;;7.90;7.30;;;6.40;99.90;;;;;;5074089;28;20458;-64
2021/01/05 10:54:41;;;;;;;8.03;7.33;;;5.00;99.90;;;;;;5074093;28;20455;-68
2021/01/05 10:57:08;;;;;;;7.80;7.20;;;4.70;99.90;;;;;;5072686;28;20530;-64
2021/01/05 10:59:35;;;;;;;7.70;7.03;;;4.70;99.90;;;;;;5069096;28;20532;-64
2021/01/05 11:02:03;;;;;;;9.13;8.23;;;4.70;99.90;;;;;;5066867;28;20459;-64
2021/01/05 11:04:30;;;;;;;7.80;7.20;;;4.70;99.90;;;;;;5072968;28;20439;-62
2021/01/05 11:06:59;;;;;;;8.43;7.60;;;4.70;99.90;;;;;;5072453;28;20447;-66
2021/01/05 11:09:26;;;;;;;7.43;6.83;;;5.00;99.90;;;;;;5072738;28;20443;-64
2021/01/05 11:11:56;;;;;;;7.80;7.20;;;4.80;99.90;;;;;;5071861;28;20446;-65
2021/01/05 11:14:23;;;;;;;7.70;7.10;;;4.80;99.90;;;;;;5070396;28;20977;-65
2021/01/05 11:16:49;;;;;;;7.57;6.87;;;4.90;99.90;;;;;;5061742;28;20447;-65
2021/01/05 11:19:17;;;;;;;8.30;7.60;;;4.80;99.90;;;;;;5058918;28;20486;-65
2021/01/05 11:21:50;;;;;;;8.60;8.00;;;4.80;99.90;;;;;;5073247;28;20825;-65
2021/01/05 11:24:17;;;;;;;7.93;7.23;;;4.80;99.90;;;;;;5068449;28;20448;-65
2021/01/05 11:26:43;;;;;;;8.73;8.00;;;4.80;99.90;;;;;;5064854;28;20455;-65
2021/01/05 11:29:10;;;;;;;7.27;6.67;;;4.80;99.90;;;;;;5071617;28;20459;-64
2021/01/05 11:31:36;;;;;;;7.20;6.60;;;5.10;99.90;;;;;;5059635;28;20459;-64
2021/01/05 11:34:03;;;;;;;6.63;6.23;;;5.00;99.90;;;;;;5069207;28;20500;-65
2021/01/05 11:36:30;;;;;;;6.60;6.00;;;5.00;99.90;;;;;;5072894;28;20446;-65
2021/01/05 11:38:57;;;;;;;6.43;5.93;;;5.00;99.90;;;;;;5056103;28;20824;-65
2021/01/05 11:41:27;;;;;;;6.60;6.10;;;5.10;99.90;;;;;;5052476;28;20865;-68
2021/01/05 11:43:53;;;;;;;6.90;6.40;;;5.00;99.90;;;;;;5066345;28;20455;-65
2021/01/05 11:46:20;;;;;;;6.80;6.30;;;5.10;99.90;;;;;;5069333;28;20820;-65
2021/01/05 11:48:47;;;;;;;5.83;5.43;;;5.20;99.90;;;;;;5052440;28;20467;-63
2021/01/05 11:51:18;;;;;;;5.83;5.43;;;5.10;99.90;;;;;;5052694;28;20452;-64
2021/01/05 11:53:44;;;;;;;5.80;5.30;;;5.20;99.90;;;;;;5072056;28;20454;-64
2021/01/05 11:56:17;;;;;;;6.17;5.67;;;5.30;99.90;;;;;;5072160;28;20938;-66
2021/01/05 11:58:45;;;;;;;5.77;5.37;;;5.20;99.90;;;;;;5052533;28;20540;-69
2021/01/05 12:01:11;;;;;;;5.73;5.33;;;5.30;99.90;;;;;;5063822;28;20457;-64
2021/01/05 12:03:37;;;;;;;5.90;5.50;;;5.20;99.90;;;;;;5070749;28;20481;-68
2021/01/05 12:06:04;;;;;;;6.37;5.83;;;5.30;99.90;;;;;;5060483;28;20513;-65
2021/01/05 12:08:31;;;;;;;6.70;6.30;;;5.30;99.90;;;;;;5072043;28;21005;-65
2021/01/05 12:10:57;;;;;;;6.40;5.97;;;5.30;99.90;;;;;;5070548;28;20462;-67
2021/01/05 12:13:23;;;;;;;6.77;6.27;;;5.30;99.90;;;;;;5071975;28;20457;-67
2021/01/05 12:15:50;;;;;;;5.90;5.50;;;5.20;99.90;;;;;;5068967;28;20447;-67
2021/01/05 12:18:17;;;;;;;6.07;5.67;;;5.30;99.90;;;;;;5052993;28;20494;-67
2021/01/05 12:20:43;;;;;;;5.40;5.00;;;5.30;99.90;;;;;;5068753;28;20457;-67
2021/01/05 12:23:09;;;;;;;6.00;5.50;;;5.30;99.90;;;;;;5070833;28;20451;-68
2021/01/05 12:25:36;;;;;;;6.17;5.60;;;5.30;99.90;;;;;;5052696;28;20448;-68
2021/01/05 12:28:02;;;;;;;6.00;5.60;;;5.30;99.90;;;;;;5052593;28;20468;-69
2021/01/05 12:30:28;;;;;;;6.10;5.70;;;5.40;99.90;;;;;;5067545;28;20463;-67
2021/01/05 12:32:55;;;;;;;6.00;5.50;;;5.30;99.90;;;;;;5070301;28;20454;-66
2021/01/05 12:35:22;;;;;;;6.57;6.07;;;5.40;99.90;;;;;;5065766;28;20451;-66
2021/01/05 12:37:48;;;;;;;6.23;5.77;;;5.40;99.90;;;;;;5052080;28;20549;-68
2021/01/05 12:40:15;;;;;;;5.97;5.33;;;5.40;99.90;;;;;;5065091;28;20439;-67
2021/01/05 12:42:41;;;;;;;10.23;6.00;;;5.40;99.90;;;;;;5075423;28;20449;-67
2021/01/05 12:45:09;;;;;;;5.63;5.23;;;5.40;99.90;;;;;;5076412;28;20442;-66
2021/01/05 12:47:36;;;;;;;5.70;5.20;;;5.40;99.90;;;;;;5071513;28;21053;-69
2021/01/05 12:50:04;;;;;;;5.77;5.27;;;5.50;99.90;;;;;;5070178;28;20505;-69
2021/01/05 12:52:30;;;;;;;5.97;5.57;;;5.40;99.90;;;;;;5059409;28;20790;-69
2021/01/05 12:54:57;;;;;;;6.03;5.53;;;5.40;99.90;;;;;;5064182;28;20456;-68
2021/01/05 12:57:23;;;;;;;6.43;5.50;;;5.30;99.90;;;;;;5055440;28;20475;-65
2021/01/05 12:59:49;;;;;;;6.03;5.53;;;5.30;99.90;;;;;;5055140;28;20508;-67
2021/01/05 13:02:17;;;;;;;5.83;5.33;;;5.30;99.90;;;;;;5055384;28;20452;-66
2021/01/05 13:04:43;;;;;;;6.20;5.70;;;5.30;99.90;;;;;;5068851;28;21014;-68
2021/01/05 13:07:11;;;;;;;6.50;5.87;;;5.30;99.90;;;;;;5075012;28;20446;-68